createdAt,value
2022-12-04T00:02:25.522Z,6.00
2022-12-04T00:04:52.369Z,6.20
2022-12-04T00:07:19.119Z,6.00
2022-12-04T00:09:46.034Z,5.90
2022-12-04T00:12:12.783Z,6.20
2022-12-04T00:15:00.789Z,6.10
2022-12-04T00:17:26.236Z,6.10
2022-12-04T00:19:53.339Z,6.20
2022-12-04T00:22:21.165Z,6.20
2022-12-04T00:24:47.901Z,6.30
2022-12-04T00:27:14.602Z,6.30
2022-12-04T00:29:41.224Z,5.90
2022-12-04T00:32:07.983Z,5.90
2022-12-04T00:34:34.733Z,6.20
2022-12-04T00:37:01.424Z,6.40
2022-12-04T00:39:28.053Z,6.10
2022-12-04T00:41:54.716Z,6.20
2022-12-04T00:44:21.469Z,6.20
2022-12-04T00:46:48.093Z,5.80
2022-12-04T00:49:14.699Z,5.70
2022-12-04T00:51:41.445Z,5.80
2022-12-04T00:54:08.125Z,5.80
2022-12-04T00:56:34.887Z,5.40
2022-12-04T00:59:01.927Z,5.80
2022-12-04T01:01:28.795Z,5.50
2022-12-04T01:03:55.512Z,5.50
2022-12-04T01:06:22.249Z,5.80
2022-12-04T01:08:49.476Z,5.90
2022-12-04T01:11:16.202Z,5.80
2022-12-04T01:13:42.984Z,6.20
2022-12-04T01:16:09.653Z,6.10
2022-12-04T01:18:36.422Z,5.90
2022-12-04T01:21:03.105Z,5.60
2022-12-04T01:23:29.928Z,5.40
2022-12-04T01:25:57.787Z,5.60
2022-12-04T01:28:24.682Z,5.90
2022-12-04T01:31:17.514Z,6.00
2022-12-04T01:33:44.386Z,6.20
2022-12-04T01:36:12.303Z,6.00
2022-12-04T01:38:39.182Z,6.20
2022-12-04T01:41:06.453Z,6.30
2022-12-04T01:43:35.744Z,5.70
2022-12-04T01:46:02.648Z,5.30
2022-12-04T01:48:41.423Z,5.50
2022-12-04T01:51:14.941Z,5.50
2022-12-04T01:53:41.961Z,5.50
2022-12-04T01:56:08.690Z,5.80
2022-12-04T01:58:36.960Z,6.00
2022-12-04T02:01:08.433Z,5.70
2022-12-04T02:03:36.157Z,6.00
2022-12-04T02:06:02.930Z,6.40
2022-12-04T02:08:29.729Z,6.30
2022-12-04T02:11:05.349Z,6.40
2022-12-04T02:13:35.110Z,6.50
2022-12-04T02:16:08.651Z,6.50
2022-12-04T02:18:41.225Z,6.60
2022-12-04T02:21:26.972Z,6.60
2022-12-04T02:24:05.735Z,6.50
2022-12-04T02:26:51.159Z,6.50
2022-12-04T02:29:28.323Z,6.40
2022-12-04T02:32:03.776Z,6.30
2022-12-04T02:34:34.281Z,6.40
2022-12-04T02:37:05.105Z,6.30
2022-12-04T02:39:36.323Z,6.30
2022-12-04T02:42:13.791Z,6.30
2022-12-04T02:44:50.855Z,6.20
2022-12-04T02:47:18.328Z,6.30
2022-12-04T02:49:49.751Z,6.20
2022-12-04T02:52:18.078Z,6.30
2022-12-04T02:54:49.668Z,6.10
2022-12-04T02:57:17.661Z,6.10
2022-12-04T02:59:45.071Z,6.10
2022-12-04T03:02:16.678Z,6.20
2022-12-04T03:04:43.435Z,6.20
2022-12-04T03:07:12.090Z,6.10
2022-12-04T03:09:38.714Z,5.90
2022-12-04T03:12:11.682Z,5.80
2022-12-04T03:14:40.123Z,5.60
2022-12-04T03:17:08.949Z,5.90
2022-12-04T03:19:43.966Z,5.70
2022-12-04T03:22:11.210Z,5.80
2022-12-04T03:24:38.516Z,6.00
2022-12-04T03:27:10.798Z,6.10
2022-12-04T03:29:46.830Z,6.00
2022-12-04T03:32:14.816Z,5.90
2022-12-04T03:34:41.515Z,5.90
2022-12-04T03:37:10.530Z,5.70
2022-12-04T03:39:38.829Z,6.00
2022-12-04T03:42:08.605Z,5.60
2022-12-04T03:44:39.861Z,5.80
2022-12-04T03:47:07.946Z,6.00
2022-12-04T03:49:52.321Z,6.20
2022-12-04T03:52:19.128Z,6.20
2022-12-04T03:54:50.223Z,6.00
2022-12-04T03:57:19.007Z,6.00
2022-12-04T03:59:52.388Z,6.20
2022-12-04T04:02:22.873Z,6.00
2022-12-04T04:04:50.026Z,6.00
2022-12-04T04:07:24.284Z,6.00
2022-12-04T04:09:52.014Z,6.00
2022-12-04T04:12:20.104Z,6.10
2022-12-04T04:15:09.565Z,6.00
2022-12-04T04:17:56.480Z,5.90
2022-12-04T04:20:42.191Z,6.10
2022-12-04T04:23:28.085Z,6.10
2022-12-04T04:25:54.752Z,6.10
2022-12-04T04:28:34.704Z,6.20
2022-12-04T04:31:16.558Z,6.10
2022-12-04T04:33:47.733Z,6.10
2022-12-04T04:36:24.234Z,6.00
2022-12-04T04:39:02.071Z,6.00
2022-12-04T04:41:49.634Z,6.10
2022-12-04T04:44:20.903Z,6.20
2022-12-04T04:46:49.749Z,6.00
2022-12-04T04:49:16.511Z,6.20
2022-12-04T04:51:43.318Z,6.30
2022-12-04T04:54:10.295Z,6.20
2022-12-04T04:56:43.345Z,6.20
2022-12-04T04:59:10.324Z,6.20
2022-12-04T05:01:37.489Z,6.00
2022-12-04T05:04:04.505Z,6.10
2022-12-04T05:06:31.204Z,6.20
2022-12-04T05:08:57.933Z,6.20
2022-12-04T05:11:24.582Z,6.30
2022-12-04T05:13:51.421Z,6.30
2022-12-04T05:16:18.196Z,6.20
2022-12-04T05:19:04.875Z,6.10
2022-12-04T05:21:31.719Z,6.20
2022-12-04T05:23:58.516Z,6.20
2022-12-04T05:26:25.193Z,6.20
2022-12-04T05:28:51.886Z,6.20
2022-12-04T05:31:18.630Z,6.30
2022-12-04T05:33:45.378Z,6.30
2022-12-04T05:36:13.384Z,6.20
2022-12-04T05:38:40.144Z,6.40
2022-12-04T05:41:07.008Z,6.40
2022-12-04T05:43:33.707Z,6.40
2022-12-04T05:46:06.739Z,6.40
2022-12-04T05:48:34.775Z,6.50
2022-12-04T05:51:04.934Z,6.50
2022-12-04T05:53:31.588Z,6.50
2022-12-04T05:55:58.665Z,6.40
2022-12-04T05:58:25.401Z,6.40
2022-12-04T06:00:52.178Z,6.50
2022-12-04T06:03:18.860Z,6.40
2022-12-04T06:05:45.563Z,5.80
2022-12-04T06:08:12.261Z,6.00
2022-12-04T06:10:39.038Z,6.30
2022-12-04T06:13:06.528Z,6.20
2022-12-04T06:15:36.721Z,6.30
2022-12-04T06:18:03.383Z,6.30
2022-12-04T06:20:30.132Z,6.30
2022-12-04T06:22:57.036Z,6.50
2022-12-04T06:25:23.768Z,6.30
2022-12-04T06:27:51.227Z,6.40
2022-12-04T06:30:18.030Z,6.40
2022-12-04T06:32:44.744Z,6.50
2022-12-04T06:35:11.429Z,6.60
2022-12-04T06:37:38.124Z,6.50
2022-12-04T06:40:05.140Z,6.50
2022-12-04T06:42:31.747Z,6.40
2022-12-04T06:44:58.453Z,6.30
2022-12-04T06:47:25.154Z,6.40
2022-12-04T06:49:51.974Z,5.90
2022-12-04T06:52:18.673Z,5.70
2022-12-04T06:54:45.329Z,5.60
2022-12-04T06:57:11.994Z,5.90
2022-12-04T06:59:38.908Z,6.20
2022-12-04T07:02:05.749Z,6.10
2022-12-04T07:04:32.442Z,6.20
2022-12-04T07:06:59.379Z,6.40
2022-12-04T07:09:26.168Z,6.10
2022-12-04T07:11:54.981Z,6.20
2022-12-04T07:14:21.757Z,6.30
2022-12-04T07:16:48.584Z,6.20
2022-12-04T07:19:15.318Z,6.20
2022-12-04T07:21:42.107Z,5.80
2022-12-04T07:24:08.884Z,5.90
2022-12-04T07:26:35.581Z,6.00
2022-12-04T07:29:02.322Z,5.90
2022-12-04T07:31:29.224Z,5.80
2022-12-04T07:33:56.246Z,6.30
2022-12-04T07:36:23.174Z,6.30
2022-12-04T07:38:49.999Z,6.50
2022-12-04T07:41:16.734Z,6.60
2022-12-04T07:43:43.490Z,6.50
2022-12-04T07:46:17.087Z,6.50
2022-12-04T07:48:43.872Z,6.30
2022-12-04T07:51:17.340Z,5.90
2022-12-04T07:53:44.068Z,5.70
2022-12-04T07:56:11.109Z,5.80
2022-12-04T07:58:37.815Z,5.50
2022-12-04T08:01:05.465Z,5.40
2022-12-04T08:03:32.200Z,5.30
2022-12-04T08:06:02.307Z,5.60
2022-12-04T08:08:28.998Z,6.00
2022-12-04T08:10:55.884Z,6.30
2022-12-04T08:13:22.649Z,6.00
2022-12-04T08:15:49.393Z,6.30
2022-12-04T08:18:16.069Z,6.30
2022-12-04T08:20:43.019Z,6.40
2022-12-04T08:23:09.760Z,6.60
2022-12-04T08:25:40.381Z,6.40
2022-12-04T08:28:07.056Z,6.60
2022-12-04T08:30:34.360Z,6.70
2022-12-04T08:33:01.103Z,6.70
2022-12-04T08:35:27.771Z,6.70
2022-12-04T08:37:54.506Z,6.70
2022-12-04T08:40:21.210Z,6.60
2022-12-04T08:42:47.904Z,6.70
2022-12-04T08:45:15.294Z,6.80
2022-12-04T08:47:42.029Z,6.80
2022-12-04T08:50:08.893Z,6.80
2022-12-04T08:52:35.682Z,6.90
2022-12-04T08:55:02.374Z,6.90
2022-12-04T08:57:29.116Z,6.90
2022-12-04T08:59:55.980Z,7.00
2022-12-04T09:02:22.819Z,7.10
2022-12-04T09:04:49.541Z,7.00
2022-12-04T09:07:16.312Z,7.00
2022-12-04T09:09:48.016Z,6.90
2022-12-04T09:12:15.162Z,7.00
2022-12-04T09:14:41.902Z,7.00
2022-12-04T09:17:08.644Z,7.00
2022-12-04T09:19:36.014Z,7.20
2022-12-04T09:22:02.920Z,7.10
2022-12-04T09:24:30.099Z,7.30
2022-12-04T09:26:56.807Z,7.20
2022-12-04T09:29:23.505Z,6.80
2022-12-04T09:31:50.226Z,6.40
2022-12-04T09:34:16.901Z,5.90
2022-12-04T09:36:43.583Z,5.90
2022-12-04T09:39:10.286Z,6.00
2022-12-04T09:41:36.974Z,6.30
2022-12-04T09:44:03.704Z,6.70
2022-12-04T09:46:33.202Z,6.60
2022-12-04T09:49:01.619Z,6.50
2022-12-04T09:51:28.362Z,7.00
2022-12-04T09:53:56.586Z,6.60
2022-12-04T09:56:23.444Z,6.40
2022-12-04T09:58:56.362Z,6.60
2022-12-04T10:01:23.895Z,6.90
2022-12-04T10:03:50.690Z,7.00
2022-12-04T10:06:19.451Z,7.20
2022-12-04T10:08:46.757Z,7.20
2022-12-04T10:11:32.055Z,7.40
2022-12-04T10:14:08.821Z,7.20
2022-12-04T10:16:47.888Z,7.20
2022-12-04T10:19:29.963Z,7.10
2022-12-04T10:22:15.514Z,7.30
2022-12-04T10:24:44.174Z,7.20
2022-12-04T10:27:19.608Z,7.30
2022-12-04T10:29:47.163Z,7.20
2022-12-04T10:32:24.424Z,7.20
2022-12-04T10:34:52.266Z,7.30
2022-12-04T10:37:19.001Z,7.30
2022-12-04T10:39:51.932Z,7.30
2022-12-04T10:42:21.497Z,7.20
2022-12-04T10:44:48.131Z,7.20
2022-12-04T10:47:15.280Z,7.00
2022-12-04T10:49:42.028Z,6.90
2022-12-04T10:52:10.667Z,7.10
2022-12-04T10:54:48.468Z,7.10
2022-12-04T10:57:15.254Z,7.10
2022-12-04T10:59:52.585Z,7.10
2022-12-04T11:02:23.569Z,7.30
2022-12-04T11:04:57.312Z,7.20
2022-12-04T11:07:24.917Z,7.20
2022-12-04T11:09:58.920Z,7.30
2022-12-04T11:12:25.703Z,7.10
2022-12-04T11:15:02.227Z,7.10
2022-12-04T11:17:29.018Z,7.00
2022-12-04T11:20:02.368Z,7.20
2022-12-04T11:22:29.059Z,7.20
2022-12-04T11:24:56.880Z,7.20
2022-12-04T11:27:24.686Z,6.70
2022-12-04T11:29:51.477Z,6.50
2022-12-04T11:32:23.287Z,6.40
2022-12-04T11:34:51.839Z,6.60
2022-12-04T11:37:22.936Z,6.90
2022-12-04T11:39:49.629Z,7.20
2022-12-04T11:42:18.311Z,7.10
2022-12-04T11:45:06.268Z,7.30
2022-12-04T11:47:33.058Z,7.30
2022-12-04T11:50:03.621Z,7.40
2022-12-04T11:52:49.175Z,7.40
2022-12-04T11:55:34.566Z,7.40
2022-12-04T11:58:04.182Z,7.40
2022-12-04T12:00:30.978Z,6.90
2022-12-04T12:03:11.967Z,6.70
2022-12-04T12:05:41.949Z,6.60
2022-12-04T12:08:19.293Z,6.60
2022-12-04T12:10:52.023Z,6.80
2022-12-04T12:13:18.751Z,6.80
2022-12-04T12:15:57.751Z,7.10
2022-12-04T12:18:27.507Z,6.80
2022-12-04T12:21:00.673Z,6.70
2022-12-04T12:23:34.249Z,6.80
2022-12-04T12:26:04.263Z,7.00
2022-12-04T12:28:33.865Z,7.20
2022-12-04T12:31:15.509Z,7.50
2022-12-04T12:33:46.822Z,7.30
2022-12-04T12:36:14.107Z,6.70
2022-12-04T12:39:04.129Z,6.80
2022-12-04T12:41:41.586Z,6.60
2022-12-04T12:44:13.184Z,6.40
2022-12-04T12:46:48.947Z,6.50
2022-12-04T12:49:26.104Z,6.60
2022-12-04T12:51:54.931Z,7.10
2022-12-04T12:54:21.787Z,7.30
2022-12-04T12:56:50.089Z,7.40
2022-12-04T12:59:18.191Z,6.80
2022-12-04T13:01:59.963Z,7.00
2022-12-04T13:04:32.560Z,7.30
2022-12-04T13:07:20.789Z,7.20
2022-12-04T13:09:53.445Z,7.40
2022-12-04T13:12:20.435Z,7.30
2022-12-04T13:14:49.149Z,7.50
2022-12-04T13:17:32.549Z,7.30
2022-12-04T13:19:59.401Z,7.20
2022-12-04T13:22:29.388Z,7.60
2022-12-04T13:24:59.125Z,7.60
2022-12-04T13:27:37.932Z,7.80
2022-12-04T13:30:14.447Z,7.70
2022-12-04T13:32:59.717Z,7.60
2022-12-04T13:35:44.478Z,7.60
2022-12-04T13:38:32.997Z,7.80
2022-12-04T13:41:00.625Z,7.20
2022-12-04T13:43:42.571Z,7.40
2022-12-04T13:46:21.580Z,7.50
2022-12-04T13:48:48.381Z,7.70
2022-12-04T13:51:15.212Z,7.60
2022-12-04T13:53:42.480Z,7.70
2022-12-04T13:56:23.708Z,7.70
2022-12-04T13:58:58.590Z,7.60
2022-12-04T14:01:26.227Z,7.70
2022-12-04T14:03:55.614Z,7.90
2022-12-04T14:06:25.923Z,7.60
2022-12-04T14:08:59.287Z,7.80
2022-12-04T14:11:28.363Z,7.80
2022-12-04T14:13:55.749Z,7.80
2022-12-04T14:16:27.234Z,7.70
2022-12-04T14:18:55.161Z,7.80
2022-12-04T14:21:21.925Z,7.90
2022-12-04T14:23:48.802Z,7.80
2022-12-04T14:26:21.860Z,7.70
2022-12-04T14:28:49.003Z,7.80
2022-12-04T14:31:21.334Z,7.80
2022-12-04T14:33:52.594Z,7.90
2022-12-04T14:36:21.090Z,7.90
2022-12-04T14:38:48.004Z,8.00
2022-12-04T14:41:14.647Z,8.00
2022-12-04T14:43:44.373Z,7.80
2022-12-04T14:46:14.217Z,7.70
2022-12-04T14:48:59.808Z,7.70
2022-12-04T14:51:29.419Z,7.50
2022-12-04T14:54:03.527Z,7.60
2022-12-04T14:56:49.087Z,7.80
2022-12-04T14:59:16.765Z,7.80
2022-12-04T15:01:43.410Z,7.40
2022-12-04T15:04:13.100Z,7.50
2022-12-04T15:06:39.985Z,7.60
2022-12-04T15:09:32.690Z,7.50
2022-12-04T15:12:18.022Z,7.70
2022-12-04T15:14:44.715Z,7.50
2022-12-04T15:17:11.695Z,7.40
2022-12-04T15:19:38.660Z,6.90
2022-12-04T15:22:11.351Z,7.00
2022-12-04T15:24:38.290Z,7.10
2022-12-04T15:27:04.955Z,7.30
2022-12-04T15:29:32.093Z,7.40
2022-12-04T15:32:00.082Z,6.90
2022-12-04T15:34:32.790Z,7.10
2022-12-04T15:37:02.368Z,6.90
2022-12-04T15:39:29.591Z,6.60
2022-12-04T15:42:25.682Z,6.70
2022-12-04T15:45:10.664Z,6.90
2022-12-04T15:47:38.185Z,6.90
2022-12-04T15:50:17.162Z,6.70
2022-12-04T15:52:50.217Z,6.60
2022-12-04T15:55:17.640Z,6.40
2022-12-04T15:57:49.596Z,6.50
2022-12-04T16:00:23.720Z,6.50
2022-12-04T16:02:50.371Z,6.30
2022-12-04T16:05:20.063Z,6.40
2022-12-04T16:08:19.017Z,6.30
2022-12-04T16:10:54.517Z,6.60
2022-12-04T16:13:26.608Z,6.30
2022-12-04T16:15:53.304Z,6.50
2022-12-04T16:18:20.042Z,6.40
2022-12-04T16:20:46.764Z,6.30
2022-12-04T16:23:13.421Z,6.30
2022-12-04T16:25:40.099Z,6.30
2022-12-04T16:28:06.723Z,6.40
2022-12-04T16:30:33.802Z,6.80
2022-12-04T16:33:00.444Z,7.00
2022-12-04T16:35:27.163Z,7.10
2022-12-04T16:37:53.856Z,7.10
2022-12-04T16:40:20.622Z,7.10
2022-12-04T16:42:47.418Z,7.10
2022-12-04T16:45:26.356Z,7.30
2022-12-04T16:47:56.192Z,7.10
2022-12-04T16:50:22.894Z,6.70
2022-12-04T16:52:49.649Z,7.00
2022-12-04T16:55:24.779Z,6.80
2022-12-04T16:57:51.731Z,6.50
2022-12-04T17:00:18.607Z,6.30
2022-12-04T17:02:45.329Z,6.20
2022-12-04T17:05:38.065Z,6.20
2022-12-04T17:08:04.933Z,6.30
2022-12-04T17:10:31.658Z,6.40
2022-12-04T17:12:58.419Z,6.50
2022-12-04T17:15:25.281Z,6.50
2022-12-04T17:17:52.033Z,6.60
2022-12-04T17:20:19.171Z,6.70
2022-12-04T17:22:45.975Z,6.80
2022-12-04T17:25:13.924Z,6.50
2022-12-04T17:27:40.627Z,6.30
2022-12-04T17:30:07.643Z,6.30
2022-12-04T17:32:35.007Z,6.40
2022-12-04T17:35:01.755Z,6.50
2022-12-04T17:37:28.438Z,6.50
2022-12-04T17:39:55.176Z,6.60
2022-12-04T17:42:21.953Z,6.80
2022-12-04T17:44:48.817Z,6.80
2022-12-04T17:47:15.667Z,6.90
2022-12-04T17:49:42.478Z,6.90
2022-12-04T17:52:09.392Z,7.10
2022-12-04T17:54:36.100Z,7.10
2022-12-04T17:57:02.820Z,7.00
2022-12-04T17:59:29.479Z,7.20
2022-12-04T18:01:56.214Z,7.20
2022-12-04T18:04:22.932Z,7.30
2022-12-04T18:06:49.629Z,7.20
2022-12-04T18:09:16.514Z,7.30
2022-12-04T18:11:44.076Z,7.10
2022-12-04T18:14:12.695Z,6.90
2022-12-04T18:16:52.927Z,6.90
2022-12-04T18:19:20.424Z,7.10
2022-12-04T18:21:47.286Z,6.90
2022-12-04T18:24:14.136Z,7.00
2022-12-04T18:26:42.158Z,7.10
2022-12-04T18:29:09.418Z,7.30
2022-12-04T18:31:36.180Z,7.50
2022-12-04T18:34:04.841Z,7.40
2022-12-04T18:36:31.727Z,7.20
2022-12-04T18:39:02.296Z,7.20
2022-12-04T18:41:29.067Z,7.40
2022-12-04T18:43:55.855Z,7.40
2022-12-04T18:46:22.758Z,7.40
2022-12-04T18:48:49.965Z,7.30
2022-12-04T18:51:35.205Z,7.30
2022-12-04T18:54:03.677Z,7.20
2022-12-04T18:56:30.587Z,7.30
2022-12-04T18:59:00.951Z,7.40
2022-12-04T19:01:27.844Z,7.50
2022-12-04T19:03:58.492Z,7.40
2022-12-04T19:06:31.981Z,7.50
2022-12-04T19:08:59.442Z,7.50
2022-12-04T19:11:26.134Z,7.50
2022-12-04T19:13:52.822Z,7.30
2022-12-04T19:16:19.554Z,7.30
2022-12-04T19:18:46.620Z,7.30
2022-12-04T19:21:16.431Z,7.40
2022-12-04T19:23:43.454Z,7.30
2022-12-04T19:26:10.207Z,7.30
2022-12-04T19:28:36.942Z,7.30
2022-12-04T19:31:03.682Z,7.10
2022-12-04T19:33:30.483Z,7.10
2022-12-04T19:35:58.283Z,7.20
2022-12-04T19:38:25.122Z,7.30
2022-12-04T19:41:01.759Z,7.30
2022-12-04T19:43:28.413Z,7.50
2022-12-04T19:45:55.167Z,7.40
2022-12-04T19:48:21.799Z,7.30
2022-12-04T19:50:49.502Z,7.30
2022-12-04T19:53:16.223Z,7.30
2022-12-04T19:55:42.951Z,7.30
2022-12-04T19:58:09.817Z,7.30
2022-12-04T20:00:36.504Z,7.30
2022-12-04T20:03:05.395Z,7.40
2022-12-04T20:05:35.275Z,7.30
2022-12-04T20:10:27.868Z,7.50
2022-12-04T20:12:57.051Z,7.30
2022-12-04T20:15:23.839Z,7.30
2022-12-04T20:17:52.483Z,7.30
2022-12-04T20:20:19.156Z,7.30
2022-12-04T20:22:45.969Z,7.30
2022-12-04T20:25:12.618Z,7.30
2022-12-04T20:27:39.248Z,7.30
2022-12-04T20:30:06.297Z,7.50
2022-12-04T20:32:33.657Z,7.60
2022-12-04T20:35:00.328Z,7.50
2022-12-04T20:37:27.161Z,7.60
2022-12-04T20:39:54.185Z,7.60
2022-12-04T20:42:21.004Z,7.50
2022-12-04T20:44:50.635Z,7.50
2022-12-04T20:47:17.344Z,7.50
2022-12-04T20:49:44.019Z,7.60
2022-12-04T20:52:11.196Z,7.50
2022-12-04T20:54:41.310Z,7.30
2022-12-04T20:57:08.745Z,7.30
2022-12-04T20:59:35.476Z,7.20
2022-12-04T21:02:02.104Z,7.20
2022-12-04T21:04:28.799Z,7.30
2022-12-04T21:06:55.475Z,7.40
2022-12-04T21:09:22.783Z,7.30
2022-12-04T21:11:53.388Z,7.40
2022-12-04T21:14:39.976Z,7.50
2022-12-04T21:17:07.675Z,7.50
2022-12-04T21:19:34.429Z,7.00
2022-12-04T21:22:01.091Z,7.20
2022-12-04T21:24:28.734Z,7.10
2022-12-04T21:26:55.454Z,7.20
2022-12-04T21:29:22.368Z,7.20
2022-12-04T21:31:49.062Z,7.20
2022-12-04T21:34:16.788Z,6.90
2022-12-04T21:36:43.555Z,7.20
2022-12-04T21:39:10.856Z,7.30
2022-12-04T21:41:55.924Z,7.40
2022-12-04T21:44:22.636Z,7.40
2022-12-04T21:46:49.589Z,7.40
2022-12-04T21:49:16.571Z,7.50
2022-12-04T21:51:59.387Z,7.60
2022-12-04T21:54:26.817Z,7.30
2022-12-04T21:56:53.536Z,7.30
2022-12-04T21:59:20.474Z,7.40
2022-12-04T22:01:47.295Z,7.10
2022-12-04T22:04:14.056Z,6.90
2022-12-04T22:06:40.800Z,7.00
2022-12-04T22:09:08.039Z,6.90
2022-12-04T22:11:34.790Z,6.90
2022-12-04T22:14:01.533Z,6.80
2022-12-04T22:16:30.603Z,7.00
2022-12-04T22:18:58.085Z,6.90
2022-12-04T22:21:24.813Z,6.90
2022-12-04T22:23:55.295Z,6.90
2022-12-04T22:26:22.035Z,6.80
2022-12-04T22:28:49.652Z,6.70
2022-12-04T22:31:17.988Z,6.60
2022-12-04T22:33:48.293Z,6.60
2022-12-04T22:36:15.919Z,6.70
2022-12-04T22:38:58.964Z,6.70
2022-12-04T22:41:29.339Z,6.80
2022-12-04T22:43:55.981Z,6.80
2022-12-04T22:46:22.667Z,6.80
2022-12-04T22:48:49.418Z,7.00
2022-12-04T22:51:17.136Z,7.20
2022-12-04T22:53:47.604Z,7.20
2022-12-04T22:56:15.251Z,7.00
2022-12-04T22:58:41.994Z,6.90
2022-12-04T23:01:15.789Z,7.00
2022-12-04T23:03:42.526Z,7.00
2022-12-04T23:06:09.444Z,7.10
2022-12-04T23:08:36.754Z,7.10
2022-12-04T23:11:04.355Z,7.00
2022-12-04T23:13:31.088Z,6.90
2022-12-04T23:15:57.818Z,7.00
2022-12-04T23:18:24.580Z,7.00
2022-12-04T23:20:51.359Z,6.90
2022-12-04T23:23:18.038Z,7.00
2022-12-04T23:25:44.698Z,6.90
2022-12-04T23:28:11.431Z,7.00
2022-12-04T23:30:38.178Z,7.20
2022-12-04T23:33:04.830Z,7.30
2022-12-04T23:35:31.558Z,7.30
2022-12-04T23:37:58.211Z,7.30
2022-12-04T23:40:24.868Z,7.10
2022-12-04T23:42:51.564Z,7.30
2022-12-04T23:45:18.187Z,7.30
2022-12-04T23:47:44.844Z,7.10
2022-12-04T23:50:11.576Z,7.00
2022-12-04T23:52:38.254Z,7.00
2022-12-04T23:55:05.217Z,7.00
2022-12-04T23:57:31.952Z,7.00
2022-12-04T23:59:58.815Z,6.90
